createdAt,value
2019-01-30T00:01:44.470Z,12.73
2019-01-30T00:04:13.830Z,14.00
2019-01-30T00:06:43.047Z,12.10
2019-01-30T00:09:12.267Z,13.63
2019-01-30T00:11:41.485Z,13.33
2019-01-30T00:14:11.363Z,12.70
2019-01-30T00:16:40.939Z,12.70
2019-01-30T00:19:10.366Z,11.83
2019-01-30T00:21:39.855Z,12.88
2019-01-30T00:24:09.460Z,11.83
2019-01-30T00:26:38.648Z,11.67
2019-01-30T00:29:07.897Z,12.43
2019-01-30T00:31:37.107Z,10.80
2019-01-30T00:34:06.246Z,11.10
2019-01-30T00:36:35.490Z,10.97
2019-01-30T00:39:07.109Z,10.00
2019-01-30T00:41:36.408Z,11.23
2019-01-30T00:44:05.716Z,9.87
2019-01-30T00:46:36.035Z,11.00
2019-01-30T00:49:06.315Z,8.90
2019-01-30T00:51:35.821Z,11.13
2019-01-30T00:54:05.058Z,11.90
2019-01-30T00:56:34.610Z,9.90
2019-01-30T00:59:03.816Z,9.30
2019-01-30T01:01:33.095Z,10.17
2019-01-30T01:04:02.517Z,9.40
2019-01-30T01:06:31.795Z,9.47
2019-01-30T01:09:01.309Z,8.57
2019-01-30T01:11:30.511Z,8.27
2019-01-30T01:13:59.718Z,10.93
2019-01-30T01:16:29.444Z,10.47
2019-01-30T01:18:59.160Z,8.93
2019-01-30T01:21:29.040Z,8.40
2019-01-30T01:23:58.544Z,9.77
2019-01-30T01:26:27.728Z,8.57
2019-01-30T01:28:56.932Z,8.30
2019-01-30T01:31:26.559Z,8.50
2019-01-30T01:33:55.793Z,9.47
2019-01-30T01:36:25.023Z,8.30
2019-01-30T01:38:54.234Z,8.60
2019-01-30T01:41:23.403Z,10.93
2019-01-30T01:43:52.628Z,8.67
2019-01-30T01:46:21.817Z,8.57
2019-01-30T01:48:51.338Z,8.80
2019-01-30T01:51:20.840Z,9.50
2019-01-30T01:53:50.042Z,8.70
2019-01-30T01:56:19.669Z,10.10
2019-01-30T01:58:49.157Z,10.67
2019-01-30T02:01:18.295Z,9.50
2019-01-30T02:03:47.881Z,9.23
2019-01-30T02:06:17.369Z,10.00
2019-01-30T02:08:46.522Z,11.00
2019-01-30T02:11:15.748Z,10.73
2019-01-30T02:13:44.955Z,8.67
2019-01-30T02:16:14.509Z,11.93
2019-01-30T02:18:43.723Z,10.90
2019-01-30T02:21:13.752Z,10.50
2019-01-30T02:23:42.923Z,10.93
2019-01-30T02:26:12.123Z,11.20
2019-01-30T02:28:41.275Z,12.30
2019-01-30T02:31:10.511Z,9.90
2019-01-30T02:33:40.207Z,13.67
2019-01-30T02:36:09.703Z,12.13
2019-01-30T02:38:39.206Z,11.90
2019-01-30T02:41:08.485Z,10.40
2019-01-30T02:43:37.667Z,12.80
2019-01-30T02:46:07.395Z,13.07
2019-01-30T02:48:36.542Z,12.97
2019-01-30T02:51:05.891Z,11.20
2019-01-30T02:53:35.073Z,13.43
2019-01-30T02:56:04.272Z,12.00
2019-01-30T02:58:34.149Z,12.67
2019-01-30T03:01:03.510Z,13.23
2019-01-30T03:03:32.737Z,13.90
2019-01-30T03:06:02.350Z,12.53
2019-01-30T03:08:31.530Z,15.00
2019-01-30T03:11:00.743Z,13.80
2019-01-30T03:13:29.935Z,14.00
2019-01-30T03:15:59.453Z,14.10
2019-01-30T03:18:29.105Z,13.90
2019-01-30T03:20:58.246Z,13.17
2019-01-30T03:23:27.515Z,11.93
2019-01-30T03:25:56.708Z,13.00
2019-01-30T03:28:25.914Z,14.17
2019-01-30T03:30:55.407Z,13.60
2019-01-30T03:33:24.591Z,13.93
2019-01-30T03:35:53.797Z,13.80
2019-01-30T03:38:22.980Z,14.20
2019-01-30T03:40:52.181Z,13.77
2019-01-30T03:43:21.337Z,13.67
2019-01-30T03:45:50.866Z,14.70
2019-01-30T03:48:20.375Z,14.03
2019-01-30T03:50:49.607Z,13.03
2019-01-30T03:53:18.830Z,13.10
2019-01-30T03:55:48.298Z,14.90
2019-01-30T03:58:17.517Z,12.63
2019-01-30T04:00:46.750Z,14.67
2019-01-30T04:03:16.680Z,14.87
2019-01-30T04:05:45.861Z,13.20
2019-01-30T04:08:15.071Z,12.30
2019-01-30T04:10:44.609Z,11.37
2019-01-30T04:13:13.771Z,13.67
2019-01-30T04:15:43.439Z,13.43
2019-01-30T04:18:12.624Z,13.10
2019-01-30T04:20:41.830Z,11.30
2019-01-30T04:23:12.554Z,12.53
2019-01-30T04:25:42.042Z,12.63
2019-01-30T04:28:11.650Z,12.17
2019-01-30T04:30:40.895Z,11.03
2019-01-30T04:33:10.791Z,12.03
2019-01-30T04:35:39.944Z,12.90
2019-01-30T04:38:09.567Z,11.93
2019-01-30T04:40:39.096Z,14.27
2019-01-30T04:43:08.884Z,11.53
2019-01-30T04:45:38.123Z,12.40
2019-01-30T04:48:07.405Z,12.10
2019-01-30T04:50:36.636Z,10.20
2019-01-30T04:53:06.154Z,12.10
2019-01-30T04:55:35.360Z,11.80
2019-01-30T04:58:04.614Z,13.50
2019-01-30T05:00:33.850Z,11.73
2019-01-30T05:03:03.022Z,12.03
2019-01-30T05:05:32.266Z,13.37
2019-01-30T05:08:01.484Z,13.70
2019-01-30T05:10:31.882Z,13.23
2019-01-30T05:13:01.097Z,12.80
2019-01-30T05:15:30.655Z,12.87
2019-01-30T05:17:59.853Z,12.50
2019-01-30T05:20:30.018Z,11.93
2019-01-30T05:22:59.527Z,12.73
2019-01-30T05:25:28.723Z,11.87
2019-01-30T05:27:57.919Z,10.63
2019-01-30T05:30:29.323Z,9.93
2019-01-30T05:32:58.520Z,13.03
2019-01-30T05:35:27.694Z,13.20
2019-01-30T05:37:56.885Z,12.10
2019-01-30T05:40:26.141Z,10.90
2019-01-30T05:42:55.352Z,11.60
2019-01-30T05:45:25.488Z,13.20
2019-01-30T05:47:54.923Z,12.57
2019-01-30T05:50:24.236Z,11.03
2019-01-30T05:52:53.441Z,11.40
2019-01-30T05:55:22.711Z,10.30
2019-01-30T05:57:52.249Z,9.70
2019-01-30T06:00:33.331Z,10.40
2019-01-30T06:03:02.536Z,10.20
2019-01-30T06:05:32.146Z,10.73
2019-01-30T06:08:01.311Z,10.00
2019-01-30T06:10:30.787Z,9.93
2019-01-30T06:13:00.336Z,9.70
2019-01-30T06:15:29.504Z,11.73
2019-01-30T06:17:58.707Z,9.67
2019-01-30T06:20:28.777Z,9.50
2019-01-30T06:22:58.121Z,8.37
2019-01-30T06:25:27.313Z,11.60
2019-01-30T06:27:56.572Z,10.50
2019-01-30T06:30:25.749Z,10.67
2019-01-30T06:32:54.957Z,11.13
2019-01-30T06:35:24.437Z,12.90
2019-01-30T06:37:53.629Z,13.93
2019-01-30T06:40:28.487Z,13.70
2019-01-30T06:42:58.045Z,11.93
2019-01-30T06:45:27.284Z,14.27
2019-01-30T06:47:56.460Z,12.00
2019-01-30T06:50:25.635Z,11.47
2019-01-30T06:52:54.860Z,11.97
2019-01-30T06:55:24.922Z,11.80
2019-01-30T06:57:54.085Z,13.10
2019-01-30T07:00:25.234Z,11.63
2019-01-30T07:02:54.984Z,13.13
2019-01-30T07:05:24.211Z,12.30
2019-01-30T07:07:53.388Z,13.30
2019-01-30T07:10:24.723Z,12.77
2019-01-30T07:12:53.867Z,12.37
2019-01-30T07:15:23.988Z,13.00
2019-01-30T07:17:53.387Z,10.17
2019-01-30T07:20:22.765Z,10.27
2019-01-30T07:22:51.978Z,6.17
2019-01-30T07:25:22.285Z,12.70
2019-01-30T07:27:51.514Z,12.20
2019-01-30T07:30:26.404Z,14.00
2019-01-30T07:32:55.604Z,14.00
2019-01-30T07:35:25.449Z,14.83
2019-01-30T07:37:54.634Z,13.83
2019-01-30T07:40:24.240Z,13.30
2019-01-30T07:42:53.414Z,13.27
2019-01-30T07:45:24.324Z,12.60
2019-01-30T07:47:54.147Z,8.83
2019-01-30T07:50:25.831Z,11.93
2019-01-30T07:52:55.017Z,8.47
2019-01-30T07:55:24.203Z,13.77
2019-01-30T07:57:53.499Z,15.47
2019-01-30T08:00:25.537Z,11.23
2019-01-30T08:02:54.676Z,11.47
2019-01-30T08:05:24.228Z,10.10
2019-01-30T08:07:53.595Z,12.10
2019-01-30T08:10:22.754Z,9.37
2019-01-30T08:12:52.337Z,11.83
2019-01-30T08:15:21.699Z,13.90
2019-01-30T08:17:50.988Z,12.50
2019-01-30T08:20:21.515Z,8.83
2019-01-30T08:22:50.981Z,10.10
2019-01-30T08:25:21.855Z,12.30
2019-01-30T08:27:51.505Z,13.77
2019-01-30T08:30:23.524Z,10.37
2019-01-30T08:33:03.761Z,11.10
2019-01-30T08:35:24.635Z,13.10
2019-01-30T08:37:54.153Z,13.00
2019-01-30T08:40:23.457Z,11.67
2019-01-30T08:42:52.966Z,12.30
2019-01-30T08:45:24.585Z,13.17
2019-01-30T08:47:54.135Z,9.07
2019-01-30T08:50:23.416Z,12.27
2019-01-30T08:52:52.582Z,8.70
2019-01-30T08:55:22.195Z,10.20
2019-01-30T08:57:51.742Z,11.17
2019-01-30T09:00:22.176Z,10.83
2019-01-30T09:02:51.348Z,11.43
2019-01-30T09:05:20.548Z,11.83
2019-01-30T09:07:49.712Z,11.43
2019-01-30T09:10:20.570Z,11.37
2019-01-30T09:12:50.379Z,12.67
2019-01-30T09:15:20.856Z,12.37
2019-01-30T09:17:50.193Z,13.03
2019-01-30T09:20:21.023Z,8.53
2019-01-30T09:22:50.217Z,12.60
2019-01-30T09:25:21.261Z,11.67
2019-01-30T09:27:50.909Z,9.97
2019-01-30T09:30:31.531Z,12.10
2019-01-30T09:33:00.837Z,9.47
2019-01-30T09:35:31.316Z,8.03
2019-01-30T09:38:00.520Z,10.20
2019-01-30T09:40:29.698Z,10.73
2019-01-30T09:42:58.917Z,10.60
2019-01-30T09:45:28.587Z,10.00
2019-01-30T09:47:57.827Z,11.30
2019-01-30T09:50:27.058Z,8.63
2019-01-30T09:52:56.239Z,11.67
2019-01-30T09:55:25.695Z,11.20
2019-01-30T09:57:55.124Z,10.30
2019-01-30T10:00:32.660Z,10.87
2019-01-30T10:03:01.969Z,10.50
2019-01-30T10:05:31.440Z,10.27
2019-01-30T10:08:00.612Z,10.40
2019-01-30T10:10:36.925Z,10.10
2019-01-30T10:13:06.923Z,9.77
2019-01-30T10:15:38.068Z,9.30
2019-01-30T10:18:07.598Z,9.60
2019-01-30T10:20:37.420Z,8.53
2019-01-30T10:23:07.110Z,9.30
2019-01-30T10:25:36.258Z,10.67
2019-01-30T10:28:15.869Z,8.50
2019-01-30T10:30:38.799Z,10.20
2019-01-30T10:33:08.480Z,8.73
2019-01-30T10:35:37.980Z,8.53
2019-01-30T10:38:07.631Z,9.07
2019-01-30T10:40:37.252Z,9.63
2019-01-30T10:43:07.457Z,8.87
2019-01-30T10:45:38.283Z,8.03
2019-01-30T10:48:08.240Z,6.27
2019-01-30T10:50:37.791Z,9.90
2019-01-30T10:53:07.092Z,7.90
2019-01-30T10:55:36.469Z,9.13
2019-01-30T10:58:08.837Z,8.80
2019-01-30T11:00:41.373Z,7.90
2019-01-30T11:03:10.980Z,7.00
2019-01-30T11:05:40.127Z,9.20
2019-01-30T11:08:09.935Z,10.77
2019-01-30T11:10:39.126Z,10.40
2019-01-30T11:13:09.076Z,14.47
2019-01-30T11:15:38.665Z,12.43
2019-01-30T11:18:10.975Z,10.37
2019-01-30T11:20:40.173Z,14.50
2019-01-30T11:23:09.312Z,18.23
2019-01-30T11:25:39.729Z,11.20
2019-01-30T11:28:08.826Z,11.30
2019-01-30T11:30:38.039Z,9.23
2019-01-30T11:33:07.890Z,10.70
2019-01-30T11:35:37.100Z,8.40
2019-01-30T11:38:08.837Z,8.17
2019-01-30T11:40:37.956Z,9.20
2019-01-30T11:43:07.513Z,10.27
2019-01-30T11:45:39.074Z,7.90
2019-01-30T11:48:08.934Z,9.13
2019-01-30T11:50:39.571Z,11.33
2019-01-30T11:53:09.201Z,10.10
2019-01-30T11:55:39.045Z,10.20
2019-01-30T11:58:08.529Z,8.13
2019-01-30T12:00:42.400Z,8.60
2019-01-30T12:03:11.610Z,8.57
2019-01-30T12:05:41.253Z,9.90
2019-01-30T12:08:10.466Z,8.80
2019-01-30T12:10:39.738Z,8.70
2019-01-30T12:13:09.966Z,8.37
2019-01-30T12:15:39.190Z,8.37
2019-01-30T12:18:09.163Z,9.10
2019-01-30T12:20:38.787Z,10.27
2019-01-30T12:23:08.088Z,9.37
2019-01-30T12:25:37.428Z,11.63
2019-01-30T12:28:06.786Z,10.90
2019-01-30T12:30:35.934Z,8.27
2019-01-30T12:33:05.196Z,10.83
2019-01-30T12:35:34.445Z,11.60
2019-01-30T12:38:03.646Z,11.60
2019-01-30T12:40:33.018Z,8.07
2019-01-30T12:43:02.971Z,9.83
2019-01-30T12:45:33.950Z,9.40
2019-01-30T12:48:03.198Z,7.77
2019-01-30T12:50:32.549Z,20.70
2019-01-30T12:53:02.159Z,18.40
2019-01-30T12:55:31.468Z,14.17
2019-01-30T12:58:00.850Z,9.70
2019-01-30T13:00:35.760Z,10.03
2019-01-30T13:03:05.413Z,9.80
2019-01-30T13:05:34.668Z,8.60
2019-01-30T13:08:03.881Z,6.13
2019-01-30T13:10:33.120Z,11.57
2019-01-30T13:13:02.304Z,10.90
2019-01-30T13:15:31.493Z,9.83
2019-01-30T13:18:01.221Z,8.37
2019-01-30T13:20:30.412Z,8.70
2019-01-30T13:22:59.913Z,9.27
2019-01-30T13:25:31.478Z,9.30
2019-01-30T13:28:00.696Z,9.53
2019-01-30T13:30:34.728Z,9.63
2019-01-30T13:33:04.620Z,10.37
2019-01-30T13:35:34.059Z,11.53
2019-01-30T13:38:03.202Z,9.93
2019-01-30T13:40:37.501Z,9.43
2019-01-30T13:43:07.173Z,11.23
2019-01-30T13:45:36.382Z,10.80
2019-01-30T13:48:09.211Z,9.10
2019-01-30T13:50:38.798Z,9.77
2019-01-30T13:53:08.048Z,10.00
2019-01-30T13:55:37.235Z,10.00
2019-01-30T13:58:06.807Z,9.60
2019-01-30T14:00:37.028Z,11.00
2019-01-30T14:03:07.238Z,10.20
2019-01-30T14:05:36.423Z,8.53
2019-01-30T14:08:07.020Z,12.03
2019-01-30T14:10:36.234Z,9.27
2019-01-30T14:13:06.026Z,11.07
2019-01-30T14:15:35.250Z,10.00
2019-01-30T14:18:04.463Z,11.50
2019-01-30T14:20:33.684Z,11.50
2019-01-30T14:23:02.933Z,10.03
2019-01-30T14:25:32.459Z,10.30
2019-01-30T14:28:01.627Z,11.50
2019-01-30T14:30:38.875Z,9.10
2019-01-30T14:33:08.913Z,18.83
2019-01-30T14:35:43.213Z,23.23
2019-01-30T14:38:12.731Z,15.63
2019-01-30T14:40:42.445Z,73.97
2019-01-30T14:43:11.882Z,21.70
2019-01-30T14:45:41.126Z,39.00
2019-01-30T14:48:10.275Z,25.53
2019-01-30T14:50:39.633Z,35.80
2019-01-30T14:53:09.243Z,16.67
2019-01-30T14:55:38.495Z,21.03
2019-01-30T14:58:10.023Z,15.37
2019-01-30T15:00:39.298Z,15.67
2019-01-30T15:03:08.550Z,15.13
2019-01-30T15:05:38.459Z,17.10
2019-01-30T15:08:08.168Z,17.67
2019-01-30T15:10:37.506Z,16.50
2019-01-30T15:13:07.735Z,17.40
2019-01-30T15:15:37.306Z,30.63
2019-01-30T15:18:07.531Z,17.87
2019-01-30T15:20:37.747Z,20.77
2019-01-30T15:23:07.973Z,18.50
2019-01-30T15:25:37.567Z,21.73
2019-01-30T15:28:07.022Z,16.10
2019-01-30T15:30:38.996Z,15.93
2019-01-30T15:33:08.470Z,16.03
2019-01-30T15:35:37.996Z,15.50
2019-01-30T15:38:09.368Z,15.07
2019-01-30T15:40:39.655Z,20.37
2019-01-30T15:43:08.894Z,19.73
2019-01-30T15:45:38.118Z,19.17
2019-01-30T15:48:07.401Z,20.53
2019-01-30T15:50:37.362Z,22.73
2019-01-30T15:53:12.578Z,17.57
2019-01-30T15:55:41.744Z,19.73
2019-01-30T15:58:12.056Z,18.40
2019-01-30T16:00:47.208Z,16.10
2019-01-30T16:03:17.047Z,15.03
2019-01-30T16:05:46.327Z,21.10
2019-01-30T16:08:15.627Z,17.80
2019-01-30T16:10:44.856Z,15.77
2019-01-30T16:13:14.346Z,35.77
2019-01-30T16:15:46.926Z,23.23
2019-01-30T16:18:16.077Z,18.80
2019-01-30T16:20:45.239Z,16.13
2019-01-30T16:23:14.557Z,15.83
2019-01-30T16:25:43.735Z,17.10
2019-01-30T16:28:14.152Z,16.47
2019-01-30T16:30:43.632Z,15.50
2019-01-30T16:33:13.161Z,14.83
2019-01-30T16:35:42.340Z,15.57
2019-01-30T16:38:11.632Z,15.97
2019-01-30T16:40:40.856Z,15.90
2019-01-30T16:43:10.373Z,15.17
2019-01-30T16:45:39.561Z,15.93
2019-01-30T16:48:09.513Z,18.33
2019-01-30T16:50:38.941Z,18.70
2019-01-30T16:53:09.250Z,16.97
2019-01-30T16:55:38.556Z,18.00
2019-01-30T16:58:09.776Z,18.63
2019-01-30T17:00:39.214Z,19.30
2019-01-30T17:03:08.481Z,18.30
2019-01-30T17:05:37.718Z,18.63
2019-01-30T17:08:07.866Z,18.23
2019-01-30T17:10:37.142Z,19.13
2019-01-30T17:13:06.991Z,18.90
2019-01-30T17:15:36.470Z,18.27
2019-01-30T17:18:06.466Z,18.70
2019-01-30T17:20:36.911Z,16.50
2019-01-30T17:23:06.877Z,17.67
2019-01-30T17:25:36.488Z,19.33
2019-01-30T17:28:06.226Z,19.77
2019-01-30T17:30:58.027Z,18.33
2019-01-30T17:33:27.942Z,18.40
2019-01-30T17:35:57.255Z,18.47
2019-01-30T17:38:26.465Z,18.23
2019-01-30T17:40:55.954Z,20.20
2019-01-30T17:43:25.164Z,19.87
2019-01-30T17:45:54.338Z,21.70
2019-01-30T17:48:23.863Z,23.07
2019-01-30T17:50:53.082Z,28.93
2019-01-30T17:53:22.326Z,31.50
2019-01-30T17:55:51.684Z,31.82
2019-01-30T17:58:21.216Z,30.97
2019-01-30T18:00:54.802Z,30.33
2019-01-30T18:03:24.022Z,30.37
2019-01-30T18:05:53.260Z,29.90
2019-01-30T18:08:23.219Z,30.80
2019-01-30T18:10:52.584Z,28.37
2019-01-30T18:13:22.073Z,29.40
2019-01-30T18:15:52.134Z,31.50
2019-01-30T18:18:21.563Z,28.57
2019-01-30T18:20:50.792Z,26.60
2019-01-30T18:23:20.695Z,28.87
2019-01-30T18:25:49.934Z,28.37
2019-01-30T18:28:19.115Z,28.00
2019-01-30T18:30:48.675Z,27.07
2019-01-30T18:33:19.274Z,26.00
2019-01-30T18:35:48.478Z,25.77
2019-01-30T18:38:17.879Z,25.83
2019-01-30T18:40:47.046Z,24.70
2019-01-30T18:43:16.428Z,26.63
2019-01-30T18:45:46.573Z,24.80
2019-01-30T18:48:16.348Z,25.80
2019-01-30T18:50:45.949Z,27.40
2019-01-30T18:53:15.716Z,24.97
2019-01-30T18:55:45.031Z,25.97
2019-01-30T18:58:14.184Z,23.17
2019-01-30T19:00:45.048Z,25.00
2019-01-30T19:03:18.600Z,23.30
2019-01-30T19:05:48.699Z,25.87
2019-01-30T19:08:18.015Z,25.47
2019-01-30T19:10:47.227Z,26.07
2019-01-30T19:13:16.516Z,26.83
2019-01-30T19:15:46.497Z,24.10
2019-01-30T19:18:16.528Z,24.13
2019-01-30T19:20:49.968Z,26.80
2019-01-30T19:23:19.477Z,27.47
2019-01-30T19:25:48.783Z,29.10
2019-01-30T19:28:18.561Z,28.10
2019-01-30T19:30:47.930Z,30.97
2019-01-30T19:33:17.411Z,29.53
2019-01-30T19:35:47.181Z,29.57
2019-01-30T19:38:16.481Z,30.37
2019-01-30T19:40:46.428Z,29.53
2019-01-30T19:43:16.104Z,28.40
2019-01-30T19:45:45.622Z,30.53
2019-01-30T19:48:15.020Z,30.67
2019-01-30T19:50:44.938Z,28.63
2019-01-30T19:53:15.065Z,29.63
2019-01-30T19:55:44.381Z,29.40
2019-01-30T19:58:14.072Z,31.50
2019-01-30T20:00:48.716Z,30.97
2019-01-30T20:03:21.471Z,33.50
2019-01-30T20:05:51.006Z,31.77
2019-01-30T20:08:20.710Z,29.20
2019-01-30T20:10:50.958Z,30.67
2019-01-30T20:13:20.942Z,33.40
2019-01-30T20:15:52.195Z,30.17
2019-01-30T20:18:21.939Z,32.27
2019-01-30T20:20:51.428Z,32.37
2019-01-30T20:23:20.744Z,35.23
2019-01-30T20:25:50.602Z,33.60
2019-01-30T20:28:19.907Z,34.47
2019-01-30T20:30:49.827Z,32.47
2019-01-30T20:33:19.169Z,32.63
2019-01-30T20:35:48.765Z,34.47
2019-01-30T20:38:18.418Z,33.97
2019-01-30T20:40:47.640Z,37.80
2019-01-30T20:43:16.849Z,35.20
2019-01-30T20:45:46.045Z,34.57
2019-01-30T20:48:15.275Z,36.40
2019-01-30T20:50:44.521Z,37.60
2019-01-30T20:53:13.678Z,38.07
2019-01-30T20:55:42.936Z,37.07
2019-01-30T20:58:12.461Z,34.43
2019-01-30T21:00:42.204Z,35.50
2019-01-30T21:03:11.799Z,34.17
2019-01-30T21:05:41.383Z,33.77
2019-01-30T21:08:10.572Z,37.60
2019-01-30T21:10:41.650Z,36.23
2019-01-30T21:13:11.967Z,36.10
2019-01-30T21:15:41.442Z,35.40
2019-01-30T21:18:10.970Z,34.30
2019-01-30T21:20:40.906Z,35.50
2019-01-30T21:23:10.088Z,36.77
2019-01-30T21:25:39.746Z,33.00
2019-01-30T21:28:08.902Z,32.37
2019-01-30T21:30:39.316Z,34.70
2019-01-30T21:33:08.978Z,36.40
2019-01-30T21:35:38.160Z,35.60
2019-01-30T21:38:08.041Z,36.67
2019-01-30T21:40:37.217Z,35.20
2019-01-30T21:43:06.965Z,37.03
2019-01-30T21:45:37.016Z,35.03
2019-01-30T21:48:07.137Z,37.60
2019-01-30T21:50:36.306Z,35.17
2019-01-30T21:53:06.120Z,38.10
2019-01-30T21:55:35.368Z,36.03
2019-01-30T21:58:04.882Z,35.63
2019-01-30T22:00:34.154Z,37.60
2019-01-30T22:03:03.321Z,40.10
2019-01-30T22:05:32.811Z,38.75
2019-01-30T22:08:02.093Z,40.17
2019-01-30T22:10:31.602Z,38.70
2019-01-30T22:13:01.381Z,41.93
2019-01-30T22:15:31.401Z,39.20
2019-01-30T22:18:01.003Z,41.10
2019-01-30T22:20:30.397Z,42.00
2019-01-30T22:23:00.813Z,43.33
2019-01-30T22:25:30.553Z,39.90
2019-01-30T22:27:59.898Z,40.43
2019-01-30T22:30:31.235Z,39.83
2019-01-30T22:33:00.418Z,39.40
2019-01-30T22:35:29.751Z,38.57
2019-01-30T22:38:11.592Z,39.60
2019-01-30T22:40:31.771Z,40.53
2019-01-30T22:43:01.077Z,39.43
2019-01-30T22:45:30.538Z,38.70
2019-01-30T22:47:59.713Z,38.33
2019-01-30T22:50:28.962Z,40.37
2019-01-30T22:52:58.147Z,39.90
2019-01-30T22:55:27.416Z,41.23
2019-01-30T22:57:56.630Z,39.33
2019-01-30T23:01:15.018Z,39.87
2019-01-30T23:04:06.772Z,35.40
2019-01-30T23:07:02.866Z,38.53
2019-01-30T23:10:07.914Z,34.70
2019-01-30T23:12:43.034Z,34.83
2019-01-30T23:15:17.804Z,34.10
2019-01-30T23:18:25.557Z,35.60
2019-01-30T23:21:02.474Z,38.27
2019-01-30T23:24:15.372Z,37.60
2019-01-30T23:26:53.549Z,34.47
2019-01-30T23:29:55.710Z,36.43
2019-01-30T23:33:03.426Z,35.73
2019-01-30T23:35:54.543Z,35.20
2019-01-30T23:38:55.533Z,35.77
2019-01-30T23:41:40.513Z,39.77
2019-01-30T23:44:50.975Z,37.30
2019-01-30T23:48:02.857Z,35.53
2019-01-30T23:51:13.340Z,33.17
2019-01-30T23:54:34.792Z,34.50
2019-01-30T23:57:35.785Z,33.93
